Strona główna
METAR-TAF:

METAR-TAF

Lotnisko :

Front Royal, Wirginia, Stany Zjednoczone

Szerokość geograficzna: 38-55-03N, Długość geograficzna: 078-15-12W, wysokość: 216 m

Aktualna obserwacja pogody

Raport powstał 5 minut temu, godzina 17:35 UTC
Wiatr 3 kt od południe
Temperatura 31°C
Wilgotność 55%
Ciśnienie 1011 hPa
Przerywane chmury na wysokości 5000 ft
Przerywane chmury na wysokości 6000 ft
Przerywane chmury na wysokości 8000 ft

METAR: KFRR 241735Z AUTO 18003KT BKN050 BKN060 BKN080 31/21 A2985 RMK AO1

czas: 13:40 (17:40 UTC)


TAF: brakujący

Obserwacja i prognoza pogody dla ponad 4000 lotnisk (raport METAR i TAF).

Dostępne stacje oznaczono żółtymi i czerwonymi punktami na mapie.

Najedź kursorem aby zobaczyć nazwę stacji.

Kliknij aby zobaczyć obserwacje i prognozy pogody.

Aby zmienić mapę: kliknij na zielony przycisk z czarnym krzyżykiem, aby powiększyć; na zielony przycisk z myślnikiem, aby pomniejszyć; na zielone strzałki, aby przejść do map sąsiednich.


METAR-TAF: